Latest Weather Observations for Giles*

IDD60801

Issued at 11:01 am CST Thursday 21 November 2019 (issued every 10 minutes, with the page automatically refreshed every 10 minutes)

About weather observations | Map of weather stations | Latest weather observations for NT | Other Formats
Station Details ID: 013017 Name: GILES METEOROLOGICAL OFFICE Lat: -25.03 Lon: 128.30 Height: 598.0 m
Data from the previous 72 hours. | See also: Recent months at Giles*

* Giles observations are collected in the South Australia time zone, which includes daylight saving in the summer period. Therefore, Rain since 9am value is with respect to South Australia local time.

Date/Time
CST
Temp
°C
App
Temp
°C
Dew
Point
°C
Rel
Hum
%
Delta-T
°C
Wind Press
QNH
hPa
Press
MSL
hPa
Rain since
9am
mm
Dir  Spd
km/h
Gust
km/h
Spd
kts
Gust
kts
21/11:00am 25.7 19.1 5.9 28 10.5 SE 30 44 16 24 1017.0 1012.9 0.0
21/10:30am 24.7 18.1 5.9 30 9.9 SSE 30 41 16 22 1017.1 1013.1 0.0
21/10:00am 23.9 16.8 6.5 32 9.2 SSE 33 48 18 26 1017.0 1012.9 0.0
21/09:30am 23.1 16.0 6.6 34 8.7 SSE 33 52 18 28 1016.7 1012.6 0.0
21/09:29am 23.0 15.9 6.5 34 8.7 SSE 33 52 18 28 1016.7 1012.6 0.0
21/09:00am 22.4 14.2 6.4 35 8.4 SSE 39 50 21 27 1016.6 1012.5 0.0
21/08:30am 22.7 14.4 6.0 34 8.7 SSE 39 50 21 27 1016.1 1012.0 0.0
21/08:00am 22.7 15.1 6.0 34 8.7 SSE 35 48 19 26 1015.2 1011.1 0.0
21/07:30am 23.2 16.3 6.5 34 8.8 SSE 32 44 17 24 1014.9 1010.8 0.0
21/07:00am 23.5 16.2 7.0 34 8.8 SSE 35 48 19 26 1014.4 1010.3 0.0
21/06:30am 23.6 17.1 8.2 37 8.4 SSE 32 44 17 24 1013.9 1009.7 0.0
21/06:16am 23.9 16.3 9.1 39 8.2 SSE 39 57 21 31 1013.1 1009.0 0.0
21/06:00am 24.6 17.2 9.7 39 8.4 SSE 39 54 21 29 1012.9 1008.8 0.0
21/05:48am 24.9 18.3 9.9 38 8.5 SSE 35 54 19 29 1012.6 1008.5 0.0
21/05:30am 25.3 17.9 9.7 37 8.8 S 39 54 21 29 1012.1 1007.9 0.0
21/05:19am 25.7 17.9 9.6 36 9.1 S 41 59 22 32 1011.8 1007.7 0.0
21/05:00am 27.4 20.7 7.4 28 11.0 S 32 44 17 24 1011.1 1007.0 0.0
21/04:30am 27.3 21.3 -1.7 15 13.6 SSW 20 28 11 15 1010.7 1006.5 0.0
21/04:00am 26.7 21.6 -1.9 15 13.3 S 15 20 8 11 1010.4 1006.2 0.0
21/03:30am 27.3 24.2 1.5 18 12.8 S 7 9 4 5 1010.3 1006.1 0.0
21/03:00am 28.2 24.8 2.0 18 13.2 S 9 11 5 6 1010.5 1006.3 0.0
21/02:30am 29.6 25.0 -0.7 14 14.7 S 13 19 7 10 1010.0 1005.9 0.0
21/02:00am 30.8 23.4 -4.0 10 16.1 SSW 26 37 14 20 1010.4 1006.2 0.0
21/01:49am 31.1 22.8 -4.7 9 16.4 SW 30 48 16 26 1011.0 1006.9 0.0
21/01:30am 31.6 23.3 -5.4 9 16.8 SSW 30 44 16 24 1010.6 1006.4 0.0
21/01:00am 32.0 25.1 -6.4 8 17.2 SSW 22 32 12 17 1010.9 1006.7 0.0
21/12:30am 32.3 24.7 -5.9 8 17.3 SSW 26 35 14 19 1010.6 1006.4 0.0
21/12:00am 32.5 25.8 -4.1 9 17.1 SSW 22 35 12 19 1011.2 1007.1 0.0
 
Date/Time
CST
Temp
°C
App
Temp
°C
Dew
Point
°C
Rel
Hum
%
Delta-T
°C
Wind Press
QNH
hPa
Press
MSL
hPa
Rain since
9am
mm
Dir  Spd
km/h
Gust
km/h
Spd
kts
Gust
kts
20/11:30pm 32.3 24.7 -2.1 11 16.6 SW 28 41 15 22 1011.1 1007.0 0.0
20/11:12pm 32.9 25.1 -3.9 9 17.3 SW 28 46 15 25 1010.8 1006.6 0.0
20/11:00pm 32.0 24.8 0.7 13 15.8 WSW 28 39 15 21 1011.1 1007.0 0.0
20/10:30pm 32.1 25.0 1.3 14 15.7 WSW 28 41 15 22 1011.2 1007.1 0.0
20/10:05pm 32.7 24.7 0.3 12 16.3 SW 32 48 17 26 1010.7 1006.5 0.0
20/10:00pm 32.7 24.1 0.4 12 16.3 SW 35 48 19 26 1010.6 1006.4 0.0
20/09:30pm 32.7 22.7 1.2 13 16.1 SW 43 61 23 33 1009.7 1005.6 0.0
20/09:00pm 34.0 24.2 -0.1 11 17.2 WSW 41 63 22 34 1009.9 1005.8 0.0
20/08:52pm 34.3 24.4 -0.6 11 17.5 W 41 65 22 35 1009.6 1005.5 0.0
20/08:34pm 36.1 27.4 -5.4 7 19.5 WNW 32 54 17 29 1008.7 1004.5 0.0
20/08:30pm 36.5 28.1 -6.4 6 19.9 WNW 30 46 16 25 1008.5 1004.3 0.0
20/08:03pm 36.8 28.6 -7.8 5 20.2 WNW 28 48 15 26 1007.9 1003.7 0.0
20/08:00pm 36.8 28.7 -7.1 6 20.2 WNW 28 43 15 23 1007.9 1003.7 0.0
20/07:38pm 37.3 29.0 -9.3 5 20.7 NW 28 46 15 25 1007.5 1003.3 0.0
20/07:30pm 37.4 29.7 -10.5 4 21.0 NW 24 37 13 20 1007.3 1003.1 0.0
20/07:03pm 37.7 29.2 -12.5 3 21.3 NW 28 46 15 25 1007.0 1002.8 0.0
20/07:00pm 37.8 28.5 -12.9 3 21.4 NW 32 46 17 25 1007.0 1002.8 0.0
20/06:30pm 38.1 29.1 -14.2 3 21.8 NW 30 43 16 23 1006.7 1002.5 0.0
20/06:09pm 38.4 29.1 -12.2 3 21.7 NW 32 50 17 27 1006.3 1002.1 0.0
20/06:00pm 38.5 28.6 -13.7 3 21.9 WNW 35 50 19 27 1006.2 1002.0 0.0
20/05:35pm 38.8 29.0 -11.8 3 21.9 NW 35 54 19 29 1005.9 1001.7 0.0
20/05:30pm 39.1 29.5 -15.2 3 22.5 NW 33 46 18 25 1005.9 1001.7 0.0
20/05:11pm 39.3 29.7 -17.6 2 22.7 NW 32 52 17 28 1005.8 1001.6 0.0
20/05:00pm 39.9 30.7 -18.2 2 23.2 NW 30 46 16 25 1005.6 1001.4 0.0
20/04:38pm 40.7 31.0 -22.0 1 23.8 NNW 32 50 17 27 1005.6 1001.4 0.0
20/04:30pm 39.9 30.2 -19.8 2 23.3 NW 32 46 17 25 1005.7 1001.5 0.0
20/04:00pm 41.0 31.3 -20.4 2 23.9 NNW 32 54 17 29 1006.0 1001.8 0.0
20/03:51pm 40.2 30.5 -20.2 2 23.4 NNW 32 54 17 29 1006.1 1001.9 0.0
20/03:30pm 39.4 29.7 -21.9 1 23.1 NNW 32 46 17 25 1006.2 1002.0 0.0
20/03:00pm 40.8 31.5 -20.9 1 23.8 NW 30 50 16 27 1006.4 1002.3 0.0
20/02:46pm 41.2 31.4 -24.3 1 24.2 NW 32 50 17 27 1006.5 1002.4 0.0
20/02:36pm 40.4 32.2 -21.8 1 23.6 NW 24 48 13 26 1006.7 1002.5 0.0
20/02:30pm 40.4 32.8 -16.8 2 23.4 WNW 22 41 12 22 1006.9 1002.7 0.0
20/02:02pm 39.4 30.5 -20.1 2 22.9 NW 28 54 15 29 1007.0 1002.8 0.0
20/02:00pm 39.2 30.3 -18.8 2 22.8 NW 28 43 15 23 1007.2 1003.0 0.0
20/01:57pm 39.4 30.2 -18.5 2 22.8 WNW 30 43 16 23 1007.3 1003.1 0.0
20/01:39pm 38.9 29.0 -20.2 2 22.6 NW 33 48 18 26 1007.4 1003.2 0.0
20/01:30pm 39.5 30.9 -23.0 1 23.2 NNW 26 37 14 20 1007.5 1003.3 0.0
20/01:00pm 39.6 30.0 -18.3 2 22.9 NW 32 48 17 26 1008.3 1004.2 0.0
20/12:36pm 40.2 30.6 -32.0 1 23.8 NW 30 54 16 29 1008.3 1004.2 0.0
20/12:30pm 39.5 31.6 -23.1 1 23.2 WNW 22 35 12 19 1008.3 1004.2 0.0
20/12:00pm 39.7 29.8 -28.2 1 23.4 NNW 32 44 17 24 1008.9 1004.7 0.0
20/11:30am 39.3 30.9 -11.0 4 22.2 NW 28 39 15 21 1009.3 1005.1 0.0
20/11:18am 38.3 29.8 -11.1 4 21.5 NW 28 48 15 26 1009.5 1005.4 0.0
20/11:00am 37.6 28.8 -10.5 4 21.1 NW 30 43 16 23 1009.7 1005.6 0.0
20/10:30am 36.9 29.9 -11.6 4 20.8 NNW 20 28 11 15 1009.9 1005.8 0.0
20/10:00am 35.5 29.0 -14.0 3 20.2 NNW 17 26 9 14 1010.2 1006.0 0.0
20/09:30am 34.8 27.2 -16.5 3 20.0 NNW 22 32 12 17 1010.3 1006.1 0.0
20/09:00am 34.1 25.0 -25.3 1 20.1 N 28 39 15 21 1010.2 1006.0 0.0
20/08:30am 33.3 23.4 -26.8 1 19.7 N 32 44 17 24 1010.0 1005.9 0.0
20/08:00am 32.9 25.0 -24.8 2 19.4 N 22 32 12 17 1009.7 1005.6 0.0
20/07:30am 33.1 24.9 -22.3 2 19.4 N 24 33 13 18 1009.3 1005.1 0.0
20/07:00am 31.6 24.9 -18.2 3 18.2 N 17 22 9 12 1009.3 1005.1 0.0
20/06:30am 29.3 22.1 -19.3 3 17.1 N 19 22 10 12 1009.1 1004.9 0.0
20/06:00am 28.7 21.9 -18.3 4 16.6 N 17 22 9 12 1008.8 1004.6 0.0
20/05:30am 27.6 20.8 -19.6 3 16.2 N 17 19 9 10 1008.8 1004.6 0.0
20/05:00am 27.6 21.1 -21.1 3 16.3 NNW 15 20 8 11 1008.8 1004.6 0.0
20/04:30am 27.8 20.7 -18.1 4 16.2 NNW 19 22 10 12 1008.6 1004.4 0.0
20/04:00am 27.5 22.8 -9.3 8 15.1 N 9 13 5 7 1008.2 1004.1 0.0
20/03:30am 27.3 21.1 -15.4 5 15.7 N 15 15 8 8 1008.6 1004.4 0.0
20/03:00am 28.6 22.3 -16.4 4 16.4 N 15 15 8 8 1008.7 1004.5 0.0
20/02:30am 28.0 22.5 -15.6 5 16.1 N 11 13 6 7 1008.9 1004.7 0.0
20/02:00am 29.5 23.2 -16.5 4 17.0 N 15 17 8 9 1009.0 1004.8 0.0
20/01:30am 28.7 22.4 -15.9 4 16.5 N 15 17 8 9 1009.3 1005.1 0.0
20/01:00am 28.6 21.9 -17.8 4 16.6 N 17 17 9 9 1009.7 1005.6 0.0
20/12:30am 28.1 22.0 -20.2 3 16.5 NW 13 19 7 10 1010.0 1005.9 0.0
20/12:00am 30.5 26.1 -10.3 6 16.9 N 7 9 4 5 1010.4 1006.2 0.0
 
Date/Time
CST
Temp
°C
App
Temp
°C
Dew
Point
°C
Rel
Hum
%
Delta-T
°C
Wind Press
QNH
hPa
Press
MSL
hPa
Rain since
9am
mm
Dir  Spd
km/h
Gust
km/h
Spd
kts
Gust
kts
19/11:30pm 29.1 25.0 -6.2 9 15.5 NNW 7 9 4 5 1010.6 1006.4 0.0
19/11:00pm 29.9 25.9 -5.9 9 15.9 NNW 7 9 4 5 1010.8 1006.6 0.0
19/10:30pm 31.9 26.3 -17.4 3 18.4 NNW 11 13 6 7 1010.8 1006.6 0.0
19/10:00pm 32.4 27.5 -12.1 5 18.2 NW 9 11 5 6 1010.7 1006.5 0.0
19/09:30pm 31.6 27.2 -10.1 6 17.5 NW 7 11 4 6 1010.6 1006.4 0.0
19/09:00pm 33.4 28.3 -15.4 4 19.1 N 9 11 5 6 1010.5 1006.3 0.0
19/08:30pm 34.0 28.4 -17.4 3 19.6 N 11 11 6 6 1010.4 1006.2 0.0
19/08:00pm 34.6 29.5 -15.5 3 19.8 NNW 9 13 5 7 1010.2 1006.0 0.0
19/07:30pm 36.0 30.4 -19.3 2 20.9 NNW 11 15 6 8 1009.8 1005.7 0.0
19/07:00pm 38.1 31.3 -35.5 0 22.6 NNW 15 20 8 11 1009.5 1005.4 0.0
19/06:30pm 38.6 32.2 -20.1 2 22.5 NNE 15 22 8 12 1009.3 1005.1 0.0
19/06:00pm 39.2 31.4 -58.4 0 23.4 NW 20 28 11 15 1009.3 1005.1 0.0
19/05:30pm 39.1 32.7 -35.8 0 23.3 NNW 13 20 7 11 1009.3 1005.1 0.0
19/05:00pm 39.6 33.4 -24.3 1 23.3 WNW 13 22 7 12 1009.3 1005.1 0.0
19/04:30pm 39.9 33.1 -51.1 0 23.9 N 15 32 8 17 1009.4 1005.2 0.0
19/04:00pm 39.3 33.8 -15.4 3 22.6 ESE 11 17 6 9 1009.7 1005.6 0.0
19/03:30pm 39.1 31.0 -36.3 0 23.3 NNW 22 32 12 17 1010.2 1006.0 0.0
19/03:00pm 38.7 32.0 -16.3 2 22.3 WNW 17 28 9 15 1010.5 1006.3 0.0
19/02:30pm 38.5 31.8 -18.1 2 22.3 N 17 37 9 20 1011.0 1006.9 0.0
19/02:00pm 37.8 31.3 -13.3 3 21.5 N 17 30 9 16 1011.3 1007.2 0.0
19/01:30pm 38.5 31.9 -15.4 3 22.1 NNE 17 24 9 13 1011.8 1007.7 0.0
19/01:00pm 38.2 31.8 -18.0 2 22.1 NNE 15 28 8 15 1012.4 1008.2 0.0
19/12:30pm 37.5 31.4 -21.8 2 21.9 N 13 30 7 16 1012.8 1008.7 0.0
19/12:00pm 37.0 30.7 -10.4 4 20.7 NNE 17 26 9 14 1013.3 1009.2 0.0
19/11:30am 37.0 29.9 -13.3 3 21.0 NNE 20 32 11 17 1013.8 1009.6 0.0
19/11:00am 36.6 28.7 -14.9 3 20.9 NNE 24 35 13 19 1014.2 1010.1 0.0
19/10:30am 35.7 27.3 -18.0 2 20.6 NNE 26 35 14 19 1014.6 1010.5 0.0
19/10:00am 35.2 27.3 -14.2 4 20.0 NNE 24 33 13 18 1014.9 1010.8 0.0
19/09:30am 34.3 25.9 -16.9 3 19.7 NNE 26 37 14 20 1015.1 1011.0 0.0
19/09:00am 33.7 25.8 -13.9 4 19.1 NNE 24 33 13 18 1015.1 1011.0 0.0
19/08:30am 32.7 24.9 -12.7 5 18.4 NNE 24 35 13 19 1015.1 1011.0 0.0
19/08:00am 31.8 26.4 -8.0 7 17.3 E 13 20 7 11 1015.0 1010.9 0.0
19/07:30am 30.9 24.9 -11.1 6 17.2 E 15 19 8 10 1014.7 1010.6 0.0
19/07:00am 29.8 23.7 -12.2 6 16.7 E 15 19 8 10 1014.4 1010.3 0.0
19/06:30am 28.6 22.9 -11.9 6 16.0 ESE 13 19 7 10 1014.2 1010.1 0.0
19/06:00am 27.0 21.5 -9.4 8 14.8 ESE 13 15 7 8 1013.9 1009.7 0.0
19/05:30am 26.6 22.1 -6.9 10 14.2 SE 9 11 5 6 1013.6 1009.5 0.0
19/05:00am 27.4 22.7 -9.2 8 15.0 E 9 13 5 7 1013.4 1009.3 0.0
19/04:30am 29.9 23.6 -10.0 7 16.5 ENE 17 28 9 15 1013.2 1009.1 0.0
19/04:00am 28.2 22.7 -9.6 8 15.5 E 13 17 7 9 1013.2 1009.1 0.0
19/03:30am 30.0 23.4 -9.6 7 16.5 ENE 19 28 10 15 1013.2 1009.1 0.0
19/03:00am 28.3 22.1 -9.2 8 15.5 E 17 20 9 11 1013.3 1009.2 0.0
19/02:30am 30.3 24.2 -8.3 7 16.5 ENE 17 22 9 12 1013.3 1009.2 0.0
19/02:00am 29.3 23.6 -7.4 8 15.8 NNE 15 17 8 9 1013.3 1009.2 0.0
19/01:30am 29.7 24.9 -6.1 9 15.8 NNE 11 13 6 7 1013.6 1009.5 0.0
19/01:00am 29.8 25.0 -5.7 9 15.8 NE 11 13 6 7 1014.1 1010.0 0.0
19/12:30am 30.6 25.3 -7.2 8 16.5 NE 13 15 7 8 1014.3 1010.2 0.0
19/12:00am 29.7 25.0 -4.9 10 15.6 ENE 11 13 6 7 1014.6 1010.5 0.0
 
Date/Time
CST
Temp
°C
App
Temp
°C
Dew
Point
°C
Rel
Hum
%
Delta-T
°C
Wind Press
QNH
hPa
Press
MSL
hPa
Rain since
9am
mm
Dir  Spd
km/h
Gust
km/h
Spd
kts
Gust
kts
18/11:30pm 30.4 25.0 -8.7 7 16.6 ENE 13 15 7 8 1014.9 1010.8 0.0
18/11:00pm 30.9 25.0 -10.3 6 17.1 ENE 15 19 8 10 1015.1 1011.0 0.0
18/10:30pm 31.2 25.3 -10.6 6 17.3 ENE 15 19 8 10 1015.1 1011.0 0.0
18/10:00pm 31.5 25.5 -10.8 6 17.5 ENE 15 19 8 10 1015.0 1010.9 0.0
18/09:30pm 31.9 25.6 -9.8 6 17.6 ENE 17 19 9 10 1015.0 1010.9 0.0
18/09:00pm 31.9 26.4 -9.8 6 17.6 ENE 13 17 7 9 1014.8 1010.7 0.0
18/08:30pm 32.4 26.9 -9.8 6 17.9 ENE 13 15 7 8 1014.7 1010.6 0.0
18/08:00pm 33.4 27.8 -10.8 5 18.6 E 13 15 7 8 1014.5 1010.4 0.0
18/07:30pm 34.7 29.5 -11.1 5 19.4 E 11 15 6 8 1014.3 1010.2 0.0
18/07:00pm 36.2 31.4 -10.3 5 20.2 ENE 9 11 5 6 1014.1 1010.0 0.0
18/06:30pm 37.0 31.2 -14.5 3 21.1 E 13 20 7 11 1013.9 1009.7 0.0
18/06:00pm 37.4 33.1 -4.4 7 20.1 ENE 9 20 5 11 1013.8 1009.6 0.0
18/05:30pm 37.7 32.2 -15.4 3 21.6 E 11 26 6 14 1013.8 1009.6 0.0
18/05:00pm 37.6 33.5 -8.3 5 20.8 S 6 15 3 8 1013.9 1009.7 0.0
18/04:30pm 37.5 30.3 -15.7 3 21.5 NE 20 35 11 19 1014.2 1010.1 0.0
18/04:00pm 37.8 32.7 -9.8 4 21.1 WNW 11 19 6 10 1014.4 1010.3 0.0
18/03:30pm 37.5 31.2 -17.1 2 21.6 SSE 15 22 8 12 1014.7 1010.6 0.0
18/03:00pm 37.0 30.6 -12.4 4 20.9 ESE 17 26 9 14 1015.1 1011.0 0.0
18/02:30pm 36.5 30.8 -12.5 4 20.6 NNE 13 24 7 13 1015.7 1011.6 0.0
18/02:00pm 37.3 31.5 -13.8 3 21.2 ESE 13 20 7 11 1016.0 1011.9 0.0
18/01:30pm 37.1 31.3 -15.2 3 21.2 ENE 13 24 7 13 1016.6 1012.5 0.0
18/01:00pm 36.6 31.1 -15.2 3 20.9 NW 11 20 6 11 1017.0 1012.9 0.0
18/12:30pm 35.8 30.1 -12.8 4 20.2 N 13 24 7 13 1017.6 1013.5 0.0
18/12:00pm 35.2 29.8 -13.4 4 19.9 NNW 11 20 6 11 1018.1 1014.0 0.0
18/11:30am 34.8 28.3 -13.8 4 19.7 NNE 17 30 9 16 1018.5 1014.4 0.0
18/11:00am 34.1 27.8 -10.2 5 18.9 NE 17 26 9 14 1018.8 1014.8 0.0
18/10:30am 33.6 26.1 -13.8 4 19.0 NNE 22 35 12 19 1019.1 1015.0 0.0

Other formats

Comma delimited format used in spreadsheet applications
http://www.bom.gov.au/fwo/IDD60801/IDD60801.94461.axf

JavaScript Object Notation format (JSON) in row-major order
http://www.bom.gov.au/fwo/IDD60801/IDD60801.94461.json

Data quality

Most of these data are generated automatically and are frequently updated. Quality checks on data are not normally performed. It is possible for incorrect values to appear. Refer to information at About Latest Weather Observations and please check the disclaimer before using these data.